sensor_id;sensor_type;location;lat;lon;timestamp;pressure;altitude;pressure_sealevel;temperature;humidity
36092;BME280;22147;52.388;13.390;2022-09-09T00:02:08;100494.00;;;12.96;100.00
36092;BME280;22147;52.388;13.390;2022-09-09T00:05:16;100497.97;;;12.95;100.00
36092;BME280;22147;52.388;13.390;2022-09-09T00:08:03;100492.72;;;12.94;100.00
36092;BME280;22147;52.388;13.390;2022-09-09T00:10:39;100491.09;;;12.93;100.00
36092;BME280;22147;52.388;13.390;2022-09-09T00:13:44;100494.59;;;12.90;100.00
36092;BME280;22147;52.388;13.390;2022-09-09T00:16:22;100488.09;;;12.86;100.00
36092;BME280;22147;52.388;13.390;2022-09-09T00:19:07;100487.63;;;12.83;100.00
36092;BME280;22147;52.388;13.390;2022-09-09T00:21:57;100486.56;;;12.76;100.00
36092;BME280;22147;52.388;13.390;2022-09-09T00:24:56;100478.78;;;12.81;100.00
36092;BME280;22147;52.388;13.390;2022-09-09T00:27:50;100476.00;;;12.81;100.00
36092;BME280;22147;52.388;13.390;2022-09-09T00:30:23;100472.63;;;12.76;100.00
36092;BME280;22147;52.388;13.390;2022-09-09T00:33:01;100473.34;;;12.73;100.00
36092;BME280;22147;52.388;13.390;2022-09-09T00:35:49;100460.94;;;12.70;100.00
36092;BME280;22147;52.388;13.390;2022-09-09T00:38:46;100466.13;;;12.72;100.00
36092;BME280;22147;52.388;13.390;2022-09-09T00:44:53;100468.69;;;12.65;100.00
36092;BME280;22147;52.388;13.390;2022-09-09T00:48:08;100467.91;;;12.64;100.00
36092;BME280;22147;52.388;13.390;2022-09-09T00:51:00;100463.59;;;12.67;100.00
36092;BME280;22147;52.388;13.390;2022-09-09T00:54:13;100469.16;;;12.67;100.00
36092;BME280;22147;52.388;13.390;2022-09-09T01:00:16;100470.09;;;12.58;100.00
36092;BME280;22147;52.388;13.390;2022-09-09T01:09:29;100473.31;;;12.48;100.00
36092;BME280;22147;52.388;13.390;2022-09-09T01:12:15;100473.69;;;12.47;100.00
36092;BME280;22147;52.388;13.390;2022-09-09T01:14:52;100481.22;;;12.46;100.00
36092;BME280;22147;52.388;13.390;2022-09-09T01:20:24;100484.84;;;12.47;100.00
36092;BME280;22147;52.388;13.390;2022-09-09T01:29:08;100477.03;;;12.28;100.00
36092;BME280;22147;52.388;13.390;2022-09-09T01:32:01;100474.59;;;12.26;100.00
36092;BME280;22147;52.388;13.390;2022-09-09T01:34:51;100472.84;;;12.21;100.00
36092;BME280;22147;52.388;13.390;2022-09-09T01:37:18;100472.25;;;12.16;100.00
36092;BME280;22147;52.388;13.390;2022-09-09T01:39:45;100463.09;;;12.15;100.00
36092;BME280;22147;52.388;13.390;2022-09-09T01:42:16;100470.59;;;12.15;100.00
36092;BME280;22147;52.388;13.390;2022-09-09T01:44:44;100469.34;;;12.12;100.00
36092;BME280;22147;52.388;13.390;2022-09-09T01:47:11;100472.47;;;12.11;100.00
36092;BME280;22147;52.388;13.390;2022-09-09T01:49:38;100478.03;;;12.11;100.00
36092;BME280;22147;52.388;13.390;2022-09-09T01:52:05;100481.16;;;12.09;100.00
36092;BME280;22147;52.388;13.390;2022-09-09T01:54:35;100470.50;;;12.11;100.00
36092;BME280;22147;52.388;13.390;2022-09-09T02:00:35;100481.50;;;12.08;100.00
36092;BME280;22147;52.388;13.390;2022-09-09T02:03:30;100485.09;;;12.08;100.00
36092;BME280;22147;52.388;13.390;2022-09-09T02:09:07;100485.47;;;12.07;100.00
36092;BME280;22147;52.388;13.390;2022-09-09T02:11:38;100490.31;;;12.10;100.00
36092;BME280;22147;52.388;13.390;2022-09-09T02:14:21;100488.91;;;12.04;100.00
36092;BME280;22147;52.388;13.390;2022-09-09T02:16:59;100475.69;;;12.00;100.00
36092;BME280;22147;52.388;13.390;2022-09-09T02:19:48;100487.25;;;11.90;100.00
36092;BME280;22147;52.388;13.390;2022-09-09T02:22:25;100485.28;;;11.91;100.00
36092;BME280;22147;52.388;13.390;2022-09-09T02:24:59;100476.59;;;11.92;100.00
36092;BME280;22147;52.388;13.390;2022-09-09T02:27:27;100477.59;;;11.88;100.00
36092;BME280;22147;52.388;13.390;2022-09-09T02:30:00;100482.91;;;11.80;100.00
36092;BME280;22147;52.388;13.390;2022-09-09T02:32:35;100487.50;;;11.76;100.00
36092;BME280;22147;52.388;13.390;2022-09-09T02:35:15;100481.84;;;11.73;100.00
36092;BME280;22147;52.388;13.390;2022-09-09T02:37:47;100486.31;;;11.65;100.00
36092;BME280;22147;52.388;13.390;2022-09-09T02:40:18;100477.34;;;11.59;100.00
36092;BME280;22147;52.388;13.390;2022-09-09T02:42:49;100483.75;;;11.60;100.00
36092;BME280;22147;52.388;13.390;2022-09-09T02:45:25;100473.56;;;11.64;100.00
36092;BME280;22147;52.388;13.390;2022-09-09T02:48:42;100484.34;;;11.66;100.00
36092;BME280;22147;52.388;13.390;2022-09-09T02:54:32;100482.09;;;11.80;100.00
36092;BME280;22147;52.388;13.390;2022-09-09T02:57:26;100480.00;;;11.77;100.00
36092;BME280;22147;52.388;13.390;2022-09-09T03:00:00;100490.66;;;11.75;100.00
36092;BME280;22147;52.388;13.390;2022-09-09T03:02:28;100488.06;;;11.70;100.00
36092;BME280;22147;52.388;13.390;2022-09-09T03:04:55;100483.69;;;11.69;100.00
36092;BME280;22147;52.388;13.390;2022-09-09T03:07:22;100484.16;;;11.71;100.00
36092;BME280;22147;52.388;13.390;2022-09-09T03:09:50;100496.56;;;11.73;100.00
36092;BME280;22147;52.388;13.390;2022-09-09T03:12:17;100490.66;;;11.75;100.00
36092;BME280;22147;52.388;13.390;2022-09-09T03:14:44;100499.00;;;11.75;100.00
36092;BME280;22147;52.388;13.390;2022-09-09T03:17:12;100497.84;;;11.76;100.00
36092;BME280;22147;52.388;13.390;2022-09-09T03:19:39;100495.38;;;11.74;100.00
36092;BME280;22147;52.388;13.390;2022-09-09T03:22:09;100499.81;;;11.75;100.00
36092;BME280;22147;52.388;13.390;2022-09-09T03:24:37;100502.72;;;11.79;100.00
36092;BME280;22147;52.388;13.390;2022-09-09T03:27:04;100506.19;;;11.76;100.00
36092;BME280;22147;52.388;13.390;2022-09-09T03:29:31;100506.88;;;11.73;100.00
36092;BME280;22147;52.388;13.390;2022-09-09T03:31:59;100501.66;;;11.71;100.00
36092;BME280;22147;52.388;13.390;2022-09-09T03:34:26;100505.44;;;11.67;100.00
36092;BME280;22147;52.388;13.390;2022-09-09T03:36:53;100504.97;;;11.65;100.00
36092;BME280;22147;52.388;13.390;2022-09-09T03:39:20;100510.72;;;11.59;100.00
36092;BME280;22147;52.388;13.390;2022-09-09T03:41:47;100507.84;;;11.56;100.00
36092;BME280;22147;52.388;13.390;2022-09-09T03:44:15;100510.81;;;11.51;100.00
36092;BME280;22147;52.388;13.390;2022-09-09T03:46:42;100509.19;;;11.50;100.00
36092;BME280;22147;52.388;13.390;2022-09-09T03:49:09;100504.44;;;11.50;100.00
36092;BME280;22147;52.388;13.390;2022-09-09T03:51:36;100502.78;;;11.49;100.00
36092;BME280;22147;52.388;13.390;2022-09-09T03:54:05;100502.69;;;11.46;100.00
36092;BME280;22147;52.388;13.390;2022-09-09T03:56:34;100499.44;;;11.44;100.00
36092;BME280;22147;52.388;13.390;2022-09-09T03:59:03;100505.31;;;11.42;100.00
36092;BME280;22147;52.388;13.390;2022-09-09T04:01:30;100501.41;;;11.43;100.00
36092;BME280;22147;52.388;13.390;2022-09-09T04:03:57;100496.16;;;11.41;100.00
36092;BME280;22147;52.388;13.390;2022-09-09T04:06:25;100497.78;;;11.43;100.00
36092;BME280;22147;52.388;13.390;2022-09-09T04:08:52;100501.41;;;11.43;100.00
36092;BME280;22147;52.388;13.390;2022-09-09T04:11:19;100501.91;;;11.36;100.00
36092;BME280;22147;52.388;13.390;2022-09-09T04:13:47;100499.13;;;11.36;100.00
36092;BME280;22147;52.388;13.390;2022-09-09T04:16:15;100507.47;;;11.36;100.00
36092;BME280;22147;52.388;13.390;2022-09-09T04:18:43;100499.97;;;11.37;100.00
36092;BME280;22147;52.388;13.390;2022-09-09T04:21:10;100507.00;;;11.34;100.00
36092;BME280;22147;52.388;13.390;2022-09-09T04:23:39;100513.41;;;11.35;100.00
36092;BME280;22147;52.388;13.390;2022-09-09T04:26:06;100513.50;;;11.38;100.00
36092;BME280;22147;52.388;13.390;2022-09-09T04:28:36;100516.78;;;11.40;100.00
36092;BME280;22147;52.388;13.390;2022-09-09T04:31:21;100515.78;;;11.45;100.00
36092;BME280;22147;52.388;13.390;2022-09-09T04:33:50;100516.13;;;11.44;100.00
36092;BME280;22147;52.388;13.390;2022-09-09T04:36:19;100515.81;;;11.36;100.00
36092;BME280;22147;52.388;13.390;2022-09-09T04:38:46;100516.28;;;11.38;100.00
36092;BME280;22147;52.388;13.390;2022-09-09T04:41:15;100529.88;;;11.40;100.00
36092;BME280;22147;52.388;13.390;2022-09-09T04:43:43;100530.69;;;11.40;100.00
36092;BME280;22147;52.388;13.390;2022-09-09T04:46:10;100525.88;;;11.50;100.00
36092;BME280;22147;52.388;13.390;2022-09-09T04:48:37;100527.97;;;11.53;100.00
36092;BME280;22147;52.388;13.390;2022-09-09T04:51:08;100533.53;;;11.53;100.00
36092;BME280;22147;52.388;13.390;2022-09-09T04:53:39;100528.91;;;11.57;100.00
36092;BME280;22147;52.388;13.390;2022-09-09T04:56:15;100524.31;;;11.61;100.00
36092;BME280;22147;52.388;13.390;2022-09-09T04:58:43;100526.88;;;11.66;100.00
36092;BME280;22147;52.388;13.390;2022-09-09T05:01:14;100526.69;;;11.71;100.00
36092;BME280;22147;52.388;13.390;2022-09-09T05:03:45;100539.09;;;11.74;100.00
36092;BME280;22147;52.388;13.390;2022-09-09T05:06:20;100535.41;;;11.82;100.00
36092;BME280;22147;52.388;13.390;2022-09-09T05:08:48;100537.19;;;11.87;100.00
36092;BME280;22147;52.388;13.390;2022-09-09T05:11:24;100535.38;;;11.91;100.00
36092;BME280;22147;52.388;13.390;2022-09-09T05:13:54;100532.03;;;11.97;100.00
36092;BME280;22147;52.388;13.390;2022-09-09T05:16:24;100535.56;;;12.07;100.00
36092;BME280;22147;52.388;13.390;2022-09-09T05:18:51;100535.81;;;12.14;100.00
36092;BME280;22147;52.388;13.390;2022-09-09T05:21:20;100535.25;;;12.20;100.00
36092;BME280;22147;52.388;13.390;2022-09-09T05:23:49;100533.06;;;12.26;100.00
36092;BME280;22147;52.388;13.390;2022-09-09T05:26:22;100531.22;;;12.30;100.00
36092;BME280;22147;52.388;13.390;2022-09-09T05:28:50;100537.03;;;12.37;100.00
36092;BME280;22147;52.388;13.390;2022-09-09T05:31:19;100533.31;;;12.46;100.00
36092;BME280;22147;52.388;13.390;2022-09-09T05:33:48;100533.69;;;12.56;100.00
36092;BME280;22147;52.388;13.390;2022-09-09T05:36:21;100536.59;;;12.60;100.00
36092;BME280;22147;52.388;13.390;2022-09-09T05:38:49;100534.75;;;12.64;100.00
36092;BME280;22147;52.388;13.390;2022-09-09T05:41:17;100534.84;;;12.68;100.00
36092;BME280;22147;52.388;13.390;2022-09-09T05:43:45;100533.84;;;12.72;100.00
36092;BME280;22147;52.388;13.390;2022-09-09T05:46:21;100536.38;;;12.77;100.00
36092;BME280;22147;52.388;13.390;2022-09-09T05:48:53;100537.06;;;12.87;100.00
36092;BME280;22147;52.388;13.390;2022-09-09T05:51:24;100553.25;;;12.93;100.00
36092;BME280;22147;52.388;13.390;2022-09-09T05:53:53;100542.31;;;13.00;100.00
36092;BME280;22147;52.388;13.390;2022-09-09T05:56:25;100551.81;;;13.12;100.00
36092;BME280;22147;52.388;13.390;2022-09-09T05:58:55;100548.22;;;13.23;100.00
36092;BME280;22147;52.388;13.390;2022-09-09T06:01:32;100558.69;;;13.39;100.00
36092;BME280;22147;52.388;13.390;2022-09-09T06:04:01;100560.53;;;13.47;100.00
36092;BME280;22147;52.388;13.390;2022-09-09T06:06:34;100560.53;;;13.47;100.00
36092;BME280;22147;52.388;13.390;2022-09-09T06:09:05;100556.69;;;13.52;100.00
36092;BME280;22147;52.388;13.390;2022-09-09T06:11:39;100561.28;;;13.72;100.00
36092;BME280;22147;52.388;13.390;2022-09-09T06:14:08;100568.56;;;13.89;100.00
36092;BME280;22147;52.388;13.390;2022-09-09T06:16:35;100564.88;;;14.01;100.00
36092;BME280;22147;52.388;13.390;2022-09-09T06:19:04;100565.72;;;14.01;100.00
36092;BME280;22147;52.388;13.390;2022-09-09T06:21:36;100570.47;;;14.29;100.00
36092;BME280;22147;52.388;13.390;2022-09-09T06:24:04;100564.84;;;14.41;100.00
36092;BME280;22147;52.388;13.390;2022-09-09T06:26:37;100567.75;;;14.33;100.00
36092;BME280;22147;52.388;13.390;2022-09-09T06:29:09;100573.72;;;14.31;100.00
36092;BME280;22147;52.388;13.390;2022-09-09T06:31:37;100570.38;;;14.25;100.00
36092;BME280;22147;52.388;13.390;2022-09-09T06:34:07;100572.13;;;14.18;100.00
36092;BME280;22147;52.388;13.390;2022-09-09T06:36:38;100576.06;;;14.29;100.00
36092;BME280;22147;52.388;13.390;2022-09-09T06:39:07;100567.31;;;14.59;100.00
36092;BME280;22147;52.388;13.390;2022-09-09T06:41:41;100563.34;;;14.92;100.00
36092;BME280;22147;52.388;13.390;2022-09-09T06:44:09;100566.19;;;15.11;100.00
36092;BME280;22147;52.388;13.390;2022-09-09T06:46:38;100575.28;;;15.40;100.00
36092;BME280;22147;52.388;13.390;2022-09-09T06:49:08;100569.47;;;15.48;100.00
36092;BME280;22147;52.388;13.390;2022-09-09T06:51:37;100563.00;;;15.80;100.00
36092;BME280;22147;52.388;13.390;2022-09-09T06:54:12;100564.19;;;15.98;100.00
36092;BME280;22147;52.388;13.390;2022-09-09T06:56:41;100563.88;;;16.03;100.00
36092;BME280;22147;52.388;13.390;2022-09-09T06:59:11;100571.00;;;16.20;100.00
36092;BME280;22147;52.388;13.390;2022-09-09T07:01:42;100568.75;;;16.49;100.00
36092;BME280;22147;52.388;13.390;2022-09-09T07:04:21;100570.75;;;16.48;100.00
36092;BME280;22147;52.388;13.390;2022-09-09T07:06:48;100578.22;;;16.41;100.00
36092;BME280;22147;52.388;13.390;2022-09-09T07:09:15;100576.53;;;16.36;100.00
36092;BME280;22147;52.388;13.390;2022-09-09T07:11:49;100576.59;;;16.40;100.00
36092;BME280;22147;52.388;13.390;2022-09-09T07:14:19;100572.13;;;16.58;100.00
36092;BME280;22147;52.388;13.390;2022-09-09T07:16:47;100576.22;;;16.84;100.00
36092;BME280;22147;52.388;13.390;2022-09-09T07:19:14;100576.28;;;16.87;100.00
36092;BME280;22147;52.388;13.390;2022-09-09T07:21:43;100570.50;;;17.03;100.00
36092;BME280;22147;52.388;13.390;2022-09-09T07:24:11;100572.41;;;17.22;100.00
36092;BME280;22147;52.388;13.390;2022-09-09T07:26:40;100572.16;;;17.31;100.00
36092;BME280;22147;52.388;13.390;2022-09-09T07:29:08;100572.28;;;17.38;100.00
36092;BME280;22147;52.388;13.390;2022-09-09T07:31:38;100580.38;;;17.74;100.00
36092;BME280;22147;52.388;13.390;2022-09-09T07:34:07;100578.81;;;18.06;100.00
36092;BME280;22147;52.388;13.390;2022-09-09T07:36:38;100587.50;;;18.28;100.00
36092;BME280;22147;52.388;13.390;2022-09-09T07:39:10;100593.72;;;18.44;100.00
36092;BME280;22147;52.388;13.390;2022-09-09T07:41:46;100584.44;;;18.06;100.00
36092;BME280;22147;52.388;13.390;2022-09-09T07:44:22;100587.75;;;18.16;100.00
36092;BME280;22147;52.388;13.390;2022-09-09T07:46:54;100594.34;;;18.30;100.00
36092;BME280;22147;52.388;13.390;2022-09-09T07:49:21;100590.88;;;18.07;100.00
36092;BME280;22147;52.388;13.390;2022-09-09T07:51:58;100582.38;;;18.00;100.00
36092;BME280;22147;52.388;13.390;2022-09-09T07:54:25;100602.66;;;18.16;100.00
36092;BME280;22147;52.388;13.390;2022-09-09T07:56:53;100595.25;;;18.04;100.00
36092;BME280;22147;52.388;13.390;2022-09-09T07:59:20;100601.25;;;18.37;100.00
36092;BME280;22147;52.388;13.390;2022-09-09T08:01:50;100605.28;;;18.36;100.00
36092;BME280;22147;52.388;13.390;2022-09-09T08:04:23;100603.06;;;18.56;100.00
36092;BME280;22147;52.388;13.390;2022-09-09T08:07:00;100600.91;;;18.79;100.00
36092;BME280;22147;52.388;13.390;2022-09-09T08:09:29;100614.84;;;18.65;100.00
36092;BME280;22147;52.388;13.390;2022-09-09T08:11:59;100610.00;;;18.28;100.00
36092;BME280;22147;52.388;13.390;2022-09-09T08:14:28;100619.06;;;18.48;100.00
36092;BME280;22147;52.388;13.390;2022-09-09T08:16:56;100610.56;;;18.78;100.00
36092;BME280;22147;52.388;13.390;2022-09-09T08:19:23;100606.88;;;18.74;100.00
36092;BME280;22147;52.388;13.390;2022-09-09T08:21:51;100615.38;;;18.78;100.00
36092;BME280;22147;52.388;13.390;2022-09-09T08:24:18;100613.44;;;18.85;100.00
36092;BME280;22147;52.388;13.390;2022-09-09T08:26:48;100616.50;;;18.73;100.00
36092;BME280;22147;52.388;13.390;2022-09-09T08:29:17;100608.25;;;18.54;100.00
36092;BME280;22147;52.388;13.390;2022-09-09T08:31:49;100616.16;;;18.37;100.00
36092;BME280;22147;52.388;13.390;2022-09-09T08:34:21;100614.56;;;18.06;100.00
36092;BME280;22147;52.388;13.390;2022-09-09T08:36:51;100619.81;;;17.81;100.00
36092;BME280;22147;52.388;13.390;2022-09-09T08:39:20;100618.03;;;17.69;100.00
36092;BME280;22147;52.388;13.390;2022-09-09T08:45:24;100616.09;;;17.46;100.00
36092;BME280;22147;52.388;13.390;2022-09-09T08:51:04;100611.03;;;17.56;100.00
36092;BME280;22147;52.388;13.390;2022-09-09T08:53:49;100621.75;;;17.77;100.00
36092;BME280;22147;52.388;13.390;2022-09-09T08:56:28;100616.03;;;17.96;100.00
36092;BME280;22147;52.388;13.390;2022-09-09T08:59:02;100623.00;;;18.09;100.00
36092;BME280;22147;52.388;13.390;2022-09-09T09:04:34;100623.06;;;18.47;100.00
36092;BME280;22147;52.388;13.390;2022-09-09T09:08:01;100624.28;;;18.49;100.00
36092;BME280;22147;52.388;13.390;2022-09-09T09:10:50;100625.91;;;18.84;100.00
36092;BME280;22147;52.388;13.390;2022-09-09T09:13:52;100622.84;;;19.04;100.00
36092;BME280;22147;52.388;13.390;2022-09-09T09:16:47;100622.72;;;18.89;100.00
36092;BME280;22147;52.388;13.390;2022-09-09T09:19:22;100628.63;;;19.18;99.78
36092;BME280;22147;52.388;13.390;2022-09-09T09:22:49;100625.09;;;19.32;98.59
36092;BME280;22147;52.388;13.390;2022-09-09T09:25:26;100618.91;;;19.67;99.70
36092;BME280;22147;52.388;13.390;2022-09-09T09:28:15;100613.50;;;20.03;100.00
36092;BME280;22147;52.388;13.390;2022-09-09T09:31:12;100612.88;;;20.49;94.23
36092;BME280;22147;52.388;13.390;2022-09-09T09:36:11;100615.69;;;20.49;89.94
36092;BME280;22147;52.388;13.390;2022-09-09T09:38:54;100605.97;;;20.40;92.36
36092;BME280;22147;52.388;13.390;2022-09-09T09:41:43;100617.72;;;20.56;90.33
36092;BME280;22147;52.388;13.390;2022-09-09T09:44:43;100612.06;;;20.56;91.29
36092;BME280;22147;52.388;13.390;2022-09-09T09:47:22;100608.88;;;20.65;95.96
36092;BME280;22147;52.388;13.390;2022-09-09T09:50:00;100599.25;;;21.05;92.71
36092;BME280;22147;52.388;13.390;2022-09-09T09:52:31;100605.72;;;21.27;89.18
36092;BME280;22147;52.388;13.390;2022-09-09T09:55:03;100602.06;;;21.41;88.48
36092;BME280;22147;52.388;13.390;2022-09-09T09:57:39;100604.91;;;21.20;89.61
36092;BME280;22147;52.388;13.390;2022-09-09T10:00:19;100607.75;;;21.23;86.09
36092;BME280;22147;52.388;13.390;2022-09-09T10:02:49;100613.78;;;21.22;87.58
36092;BME280;22147;52.388;13.390;2022-09-09T10:05:26;100606.94;;;21.30;92.20
36092;BME280;22147;52.388;13.390;2022-09-09T10:08:05;100609.38;;;21.42;85.46
36092;BME280;22147;52.388;13.390;2022-09-09T10:10:54;100614.19;;;21.13;89.38
36092;BME280;22147;52.388;13.390;2022-09-09T10:17:15;100615.38;;;21.01;84.94
36092;BME280;22147;52.388;13.390;2022-09-09T10:20:49;100617.00;;;20.99;89.87
36092;BME280;22147;52.388;13.390;2022-09-09T10:29:56;100618.63;;;21.10;91.46
36092;BME280;22147;52.388;13.390;2022-09-09T10:36:02;100619.03;;;20.98;87.32
36092;BME280;22147;52.388;13.390;2022-09-09T10:39:06;100614.97;;;20.88;89.32
36092;BME280;22147;52.388;13.390;2022-09-09T10:42:16;100610.84;;;20.57;85.19
36092;BME280;22147;52.388;13.390;2022-09-09T10:48:28;100607.72;;;21.27;89.96
36092;BME280;22147;52.388;13.390;2022-09-09T10:51:41;100604.91;;;21.59;85.17
36092;BME280;22147;52.388;13.390;2022-09-09T10:54:54;100605.28;;;21.68;79.75
36092;BME280;22147;52.388;13.390;2022-09-09T10:57:42;100602.03;;;21.77;84.51
36092;BME280;22147;52.388;13.390;2022-09-09T11:00:39;100612.16;;;21.46;81.83
36092;BME280;22147;52.388;13.390;2022-09-09T11:03:26;100606.53;;;21.17;83.46
36092;BME280;22147;52.388;13.390;2022-09-09T11:06:09;100607.31;;;21.07;84.71
36092;BME280;22147;52.388;13.390;2022-09-09T11:08:45;100606.50;;;21.35;89.88
36092;BME280;22147;52.388;13.390;2022-09-09T11:11:36;100602.88;;;21.60;79.40
36092;BME280;22147;52.388;13.390;2022-09-09T11:17:33;100604.41;;;21.82;78.87
36092;BME280;22147;52.388;13.390;2022-09-09T11:20:12;100608.53;;;21.63;80.36
36092;BME280;22147;52.388;13.390;2022-09-09T11:22:58;100606.09;;;21.40;83.37
36092;BME280;22147;52.388;13.390;2022-09-09T11:25:44;100610.94;;;21.72;87.26
36092;BME280;22147;52.388;13.390;2022-09-09T11:32:25;100599.66;;;21.50;82.52
36092;BME280;22147;52.388;13.390;2022-09-09T11:35:34;100606.94;;;21.55;82.23
36092;BME280;22147;52.388;13.390;2022-09-09T11:38:35;100599.66;;;21.54;81.96
36092;BME280;22147;52.388;13.390;2022-09-09T11:41:16;100594.69;;;21.90;81.21
36092;BME280;22147;52.388;13.390;2022-09-09T11:43:52;100602.25;;;22.22;77.22
36092;BME280;22147;52.388;13.390;2022-09-09T11:46:33;100602.19;;;22.44;77.36
36092;BME280;22147;52.388;13.390;2022-09-09T11:49:21;100601.47;;;22.25;74.46
36092;BME280;22147;52.388;13.390;2022-09-09T11:51:53;100595.28;;;22.48;74.26
36092;BME280;22147;52.388;13.390;2022-09-09T11:54:33;100585.28;;;22.29;74.22
36092;BME280;22147;52.388;13.390;2022-09-09T11:57:36;100582.88;;;22.28;79.87
36092;BME280;22147;52.388;13.390;2022-09-09T12:00:06;100580.81;;;22.32;73.73
36092;BME280;22147;52.388;13.390;2022-09-09T12:02:34;100585.31;;;22.26;72.58
36092;BME280;22147;52.388;13.390;2022-09-09T12:05:11;100579.13;;;22.45;72.37
36092;BME280;22147;52.388;13.390;2022-09-09T12:07:52;100569.03;;;22.44;71.07
36092;BME280;22147;52.388;13.390;2022-09-09T12:10:32;100571.94;;;22.30;74.01
36092;BME280;22147;52.388;13.390;2022-09-09T12:13:35;100569.13;;;22.26;75.57
36092;BME280;22147;52.388;13.390;2022-09-09T12:16:03;100563.31;;;22.51;75.06
36092;BME280;22147;52.388;13.390;2022-09-09T12:18:37;100564.72;;;22.81;73.78
36092;BME280;22147;52.388;13.390;2022-09-09T12:21:44;100556.63;;;22.83;72.72
36092;BME280;22147;52.388;13.390;2022-09-09T12:28:20;100567.97;;;22.09;71.29
36092;BME280;22147;52.388;13.390;2022-09-09T12:31:09;100561.53;;;22.05;73.41
36092;BME280;22147;52.388;13.390;2022-09-09T12:33:52;100554.66;;;22.06;73.96
36092;BME280;22147;52.388;13.390;2022-09-09T12:36:27;100550.59;;;22.14;72.70
36092;BME280;22147;52.388;13.390;2022-09-09T12:39:27;100553.78;;;22.24;76.38
36092;BME280;22147;52.388;13.390;2022-09-09T12:41:59;100550.09;;;22.34;75.55
36092;BME280;22147;52.388;13.390;2022-09-09T12:44:26;100546.47;;;22.33;73.59
36092;BME280;22147;52.388;13.390;2022-09-09T12:47:01;100541.72;;;22.05;75.66
36092;BME280;22147;52.388;13.390;2022-09-09T12:49:39;100546.28;;;21.85;71.69
36092;BME280;22147;52.388;13.390;2022-09-09T12:52:23;100547.53;;;21.80;73.88
36092;BME280;22147;52.388;13.390;2022-09-09T12:55:04;100549.16;;;21.70;73.89
36092;BME280;22147;52.388;13.390;2022-09-09T12:57:39;100555.22;;;21.69;77.30
36092;BME280;22147;52.388;13.390;2022-09-09T13:02:58;100559.06;;;22.14;77.72
36092;BME280;22147;52.388;13.390;2022-09-09T13:05:38;100561.22;;;21.89;71.82
36092;BME280;22147;52.388;13.390;2022-09-09T13:08:11;100559.91;;;22.08;75.44
36092;BME280;22147;52.388;13.390;2022-09-09T13:13:36;100562.59;;;22.44;76.01
36092;BME280;22147;52.388;13.390;2022-09-09T13:16:22;100552.06;;;22.44;73.44
36092;BME280;22147;52.388;13.390;2022-09-09T13:18:53;100549.63;;;22.43;77.23
36092;BME280;22147;52.388;13.390;2022-09-09T13:21:34;100543.19;;;22.39;76.08
36092;BME280;22147;52.388;13.390;2022-09-09T13:24:29;100544.47;;;22.30;77.44
36092;BME280;22147;52.388;13.390;2022-09-09T13:27:29;100536.81;;;22.31;73.22
36092;BME280;22147;52.388;13.390;2022-09-09T13:30:29;100535.09;;;22.41;73.53
36092;BME280;22147;52.388;13.390;2022-09-09T13:35:57;100538.00;;;22.33;77.82
36092;BME280;22147;52.388;13.390;2022-09-09T13:38:40;100529.53;;;22.30;77.23
36092;BME280;22147;52.388;13.390;2022-09-09T13:41:32;100529.13;;;22.24;76.53
36092;BME280;22147;52.388;13.390;2022-09-09T13:44:03;100531.59;;;22.19;78.29
36092;BME280;22147;52.388;13.390;2022-09-09T13:46:40;100532.00;;;22.17;77.58
36092;BME280;22147;52.388;13.390;2022-09-09T13:51:44;100534.03;;;22.09;78.18
36092;BME280;22147;52.388;13.390;2022-09-09T13:54:16;100539.78;;;21.91;78.89
36092;BME280;22147;52.388;13.390;2022-09-09T13:56:48;100536.97;;;21.84;79.37
36092;BME280;22147;52.388;13.390;2022-09-09T13:59:19;100535.81;;;21.78;83.98
36092;BME280;22147;52.388;13.390;2022-09-09T14:01:46;100543.50;;;21.70;88.79
36092;BME280;22147;52.388;13.390;2022-09-09T14:04:15;100539.53;;;21.50;95.30
36092;BME280;22147;52.388;13.390;2022-09-09T14:06:43;100549.63;;;21.33;98.15
36092;BME280;22147;52.388;13.390;2022-09-09T14:09:15;100547.63;;;21.19;96.14
36092;BME280;22147;52.388;13.390;2022-09-09T14:11:45;100546.84;;;21.01;97.28
36092;BME280;22147;52.388;13.390;2022-09-09T14:14:14;100548.44;;;20.91;97.80
36092;BME280;22147;52.388;13.390;2022-09-09T14:16:42;100550.84;;;20.78;98.51
36092;BME280;22147;52.388;13.390;2022-09-09T14:21:36;100552.03;;;20.59;97.85
36092;BME280;22147;52.388;13.390;2022-09-09T14:24:04;100545.97;;;20.43;100.00
36092;BME280;22147;52.388;13.390;2022-09-09T14:26:31;100531.47;;;20.55;100.00
36092;BME280;22147;52.388;13.390;2022-09-09T14:28:58;100540.34;;;20.43;100.00
36092;BME280;22147;52.388;13.390;2022-09-09T14:31:28;100534.28;;;20.44;100.00
36092;BME280;22147;52.388;13.390;2022-09-09T14:33:55;100533.03;;;20.38;100.00
36092;BME280;22147;52.388;13.390;2022-09-09T14:36:22;100530.19;;;20.13;100.00
36092;BME280;22147;52.388;13.390;2022-09-09T14:38:50;100528.59;;;20.23;100.00
36092;BME280;22147;52.388;13.390;2022-09-09T14:41:19;100526.94;;;20.14;98.60
36092;BME280;22147;52.388;13.390;2022-09-09T14:43:49;100518.50;;;20.11;97.10
36092;BME280;22147;52.388;13.390;2022-09-09T14:46:19;100524.56;;;20.13;94.59